Lancaster, SC

6:26 PM EST on February 14, 2016 (GMT -0500)
Country Club Estates | | Change Station
CLOSE
Current Station
Personal Weather Station
Location: Lancaster, SC
Elevation: 522 ft
Nearby Weather Stations
Active Advisory: Freezing Rain Advisory

Elev 522 ft 34.67 °N, 80.77 °W | Updated 2 minutes ago

Mostly Cloudy
Mostly Cloudy
31.6 °F
Feels Like 32 °F
N
0.0
Wind Variable Wind from East

Today
High -- | Low -- °F
--% Chance of Precip.
Yesterday
High -- | Low -- °F
Precip. -- in
Pressure 30.47 in
Visibility 10.0 miles
Clouds Mostly Cloudy 4300 ft
Overcast 8000 ft
Windchill 32 °F
Dew Point 4 °F
Humidity 30%
Rainfall 0.00 in
Snow Depth Not available.
7:10 AM 6:04 PM
Waxing Crescent, 46% visible
METAR KEQY 142253Z AUTO 06004KT 10SM BKN043 OVC080 M02/M17 A3039 RMK AO2 SLP318 T10171167
Pressure 30.47 in
Visibility 10.0 miles
Clouds Mostly Cloudy 4300 ft
Overcast 8000 ft
Windchill 32 °F
Dew Point 4 °F
Humidity 30%
Rainfall 0.00 in
Snow Depth Not available.
7:10 AM 6:04 PM
Waxing Crescent, 46% visible
METAR KEQY 142253Z AUTO 06004KT 10SM BKN043 OVC080 M02/M17 A3039 RMK AO2 SLP318 T10171167

10-Day Weather Forecast

Almanac

Astronomy

Feb. 14, 2016 Rise Set
Actual Time
Civil Twilight
Nautical Twilight
Astronomical Twilight
Moon
Length of Visible Light
Length of Day
Tomorrow will be .
, % of the Moon is Illuminated

Today's Extremes

State Highs State Lows

Community

WunderPhotos

Upload Photos

1,892,915 photos uploaded!

WunderBlog® & News

Nearby

Air Quality

  Air Quality AQ Index Pollutant
Not available.

Snow Depth

Station Depth Elevation

Earthquake Activity

City Distance Mag. Time & Date
Minimum magnitude displayed is 2.5.

Coastal Water Temperatures

Place Temperature

Stations

Nearby Weather Stations

Station Location Temp. Windchill Dew Point Humidity Wind Precip. Elev Updated Type
                   

Watches & Warnings

Freezing Rain Advisory
Issued: 2:51 PM EST Feb. 14, 2016 – National Weather Service

... Freezing Rain Advisory in effect from 1 am to noon EST
Monday...

The National Weather Service in Columbia has issued a Freezing
Rain Advisory... which is in effect from 1 am to noon EST Monday.

* Timing... 1 am through 12 PM EST Monday

* ice accumulations... trace amounts.

* Other impacts... light icing on elevated surfaces.

Precautionary/preparedness actions...

A Freezing Rain Advisory means that periods of freezing rain or
freezing drizzle will cause travel difficulties. Be prepared for
slippery roads. Slow down and use caution while driving.